Time;durP1;ratioP1;P1;durP2;ratioP2;P2;SDS_P1;SDS_P2;PMS_P1;PMS_P2;Temp;Humidity;BMP_temperature;BMP_pressure;BME280_temperature;BME280_humidity;BME280_pressure;Samples;Min_cycle;Max_cycle;Signal;HPM_P1;HPM_P2
2022/10/13 00:02:26;;;;;;;37.93;25.40;;;;;;;3.78;75.78;101619.30;3513676;78;20935;-90
2022/10/13 00:07:18;;;;;;;50.52;31.60;;;;;;;3.80;75.66;101620.27;3570496;77;21045;-90
2022/10/13 00:12:09;;;;;;;44.45;27.52;;;;;;;3.77;75.55;101622.69;3506127;77;21655;-90
2022/10/13 00:17:00;;;;;;;39.27;24.30;;;;;;;3.71;75.70;101621.02;3624838;77;21883;-90
2022/10/13 00:21:51;;;;;;;38.65;26.45;;;;;;;3.68;75.56;101619.55;3565218;77;20961;-90
2022/10/13 00:26:42;;;;;;;33.35;23.77;;;;;;;3.64;75.67;101618.88;3574997;77;20991;-90
2022/10/13 00:31:35;;;;;;;33.33;22.45;;;;;;;3.62;75.62;101615.34;3602053;78;21010;-90
2022/10/13 00:36:29;;;;;;;39.53;24.27;;;;;;;3.58;75.46;101610.82;3609208;77;21077;-90
2022/10/13 00:41:21;;;;;;;27.82;20.77;;;;;;;3.52;75.64;101613.00;3602236;77;21081;-90
2022/10/13 00:46:14;;;;;;;33.00;22.10;;;;;;;3.46;75.42;101613.53;3561329;78;20953;-90
2022/10/13 00:51:06;;;;;;;33.28;22.32;;;;;;;3.38;75.45;101610.51;3557601;78;21468;-90
2022/10/13 00:55:58;;;;;;;31.95;22.22;;;;;;;3.33;75.74;101606.77;3535566;77;20923;-90
2022/10/13 01:00:52;;;;;;;32.25;22.73;;;;;;;3.30;75.64;101613.00;3531163;77;21578;-89
2022/10/13 01:05:45;;;;;;;42.25;24.82;;;;;;;3.26;75.64;101611.05;3577950;78;21147;-90
2022/10/13 01:11:14;;;;;;;31.87;22.70;;;;;;;3.21;75.62;101604.73;3525839;77;20947;-89
2022/10/13 01:16:32;;;;;;;28.83;21.77;;;;;;;3.17;75.71;101600.22;3625944;77;21506;-90
2022/10/13 01:21:46;;;;;;;30.57;21.85;;;;;;;3.13;75.88;101587.95;3584959;77;21461;-90
2022/10/13 01:27:16;;;;;;;37.63;23.90;;;;;;;3.11;76.07;101581.83;3592546;77;21005;-89
2022/10/13 01:32:28;;;;;;;33.78;22.07;;;;;;;3.12;76.20;101581.05;3628935;77;20970;-89
2022/10/13 01:37:26;;;;;;;46.10;28.45;;;;;;;3.09;76.09;101579.57;3574316;77;20964;-90
2022/10/13 01:42:26;;;;;;;40.33;25.32;;;;;;;3.10;76.36;101577.51;3621158;77;21038;-89
2022/10/13 01:47:18;;;;;;;38.78;24.77;;;;;;;3.12;76.55;101573.34;3581288;78;21463;-89
2022/10/13 01:52:14;;;;;;;41.45;25.95;;;;;;;3.12;76.64;101576.79;3636929;77;20923;-90
2022/10/13 01:57:31;;;;;;;42.25;23.52;;;;;;;3.12;76.84;101581.05;3603560;77;21093;-90
2022/10/13 02:02:30;;;;;;;41.28;27.22;;;;;;;3.08;76.58;101576.50;3574147;77;21449;-89
2022/10/13 02:07:39;;;;;;;42.45;25.70;;;;;;;3.08;76.98;101579.06;3591097;78;20979;-89
2022/10/13 02:12:45;;;;;;;37.08;24.02;;;;;;;3.07;76.79;101572.17;3623978;77;20951;-89
2022/10/13 02:17:39;;;;;;;40.03;26.10;;;;;;;3.02;76.88;101570.59;3552653;78;21002;-90
2022/10/13 02:22:36;;;;;;;39.25;25.27;;;;;;;2.95;76.79;101568.07;3598273;77;22008;-90
2022/10/13 02:27:28;;;;;;;43.50;28.65;;;;;;;2.92;76.96;101558.88;3583634;77;20989;-89
2022/10/13 02:32:20;;;;;;;39.27;27.98;;;;;;;2.86;76.60;101555.92;3575744;77;21050;-89
2022/10/13 02:37:11;;;;;;;34.05;26.27;;;;;;;2.81;76.70;101558.63;3588234;77;21045;-90
2022/10/13 02:42:03;;;;;;;41.42;27.55;;;;;;;2.76;76.77;101554.88;3581437;77;21441;-89
2022/10/13 02:46:54;;;;;;;37.20;26.48;;;;;;;2.73;76.83;101548.27;3572248;77;21512;-90
2022/10/13 02:51:46;;;;;;;42.20;28.25;;;;;;;2.69;76.65;101551.45;3562737;77;21244;-90
2022/10/13 02:56:38;;;;;;;41.65;28.90;;;;;;;2.61;76.49;101557.36;3615102;77;21027;-90
2022/10/13 03:01:29;;;;;;;40.08;29.10;;;;;;;2.55;76.65;101552.73;3584560;77;21037;-89
2022/10/13 03:06:21;;;;;;;40.20;27.55;;;;;;;2.53;76.57;101564.59;3596939;77;20970;-90
2022/10/13 03:11:12;;;;;;;39.60;25.02;;;;;;;2.52;76.56;101552.53;3553543;77;21047;-90
2022/10/13 03:16:04;;;;;;;43.30;25.37;;;;;;;2.48;76.53;101559.16;3570692;77;20990;-90
2022/10/13 03:20:58;;;;;;;35.58;24.52;;;;;;;2.45;76.70;101552.94;3572541;77;20962;-89
2022/10/13 03:25:49;;;;;;;36.80;26.68;;;;;;;2.45;76.80;101557.70;3618760;77;21552;-90
2022/10/13 03:30:40;;;;;;;37.93;26.55;;;;;;;2.45;77.01;101556.79;3604807;78;21658;-90
2022/10/13 03:35:32;;;;;;;37.88;24.82;;;;;;;2.41;76.80;101558.28;3609519;77;20951;-89
2022/10/13 03:40:23;;;;;;;41.10;25.43;;;;;;;2.39;76.93;101547.44;3562974;77;21474;-89
2022/10/13 03:45:15;;;;;;;43.50;24.60;;;;;;;2.37;76.96;101549.02;3545333;77;20955;-89
2022/10/13 03:50:07;;;;;;;40.20;26.35;;;;;;;2.35;77.02;101545.48;3588548;77;21477;-89
2022/10/13 03:54:58;;;;;;;36.73;24.27;;;;;;;2.28;76.58;101547.63;3577370;78;20998;-89
2022/10/13 03:59:50;;;;;;;33.02;24.37;;;;;;;2.23;76.68;101541.72;3612015;78;21314;-89
2022/10/13 04:04:41;;;;;;;36.25;23.70;;;;;;;2.19;76.80;101543.61;3557370;78;20976;-89
2022/10/13 04:09:32;;;;;;;41.73;24.15;;;;;;;2.14;76.72;101542.42;3605494;78;20947;-89
2022/10/13 04:14:24;;;;;;;37.50;24.27;;;;;;;2.08;76.69;101544.20;3583238;77;21232;-89
2022/10/13 04:19:16;;;;;;;40.73;24.98;;;;;;;2.01;76.82;101540.75;3611469;78;20970;-89
2022/10/13 04:24:11;;;;;;;31.40;21.65;;;;;;;1.97;76.88;101551.58;3560948;78;22029;-89
2022/10/13 04:29:05;;;;;;;35.63;22.32;;;;;;;1.94;76.92;101551.40;3530905;77;21444;-90
2022/10/13 04:33:56;;;;;;;40.98;25.60;;;;;;;1.89;77.00;101556.22;3549921;77;20954;-90
2022/10/13 04:38:48;;;;;;;32.50;21.60;;;;;;;1.86;76.98;101554.35;3532271;77;20970;-91
2022/10/13 04:43:40;;;;;;;35.55;23.80;;;;;;;1.83;77.12;101554.14;3593904;77;20979;-91
2022/10/13 04:48:31;;;;;;;32.80;24.20;;;;;;;1.80;76.96;101560.34;3531424;77;21990;-91
2022/10/13 04:53:23;;;;;;;33.58;23.27;;;;;;;1.77;76.95;101557.60;3596165;77;21046;-91
2022/10/13 04:58:14;;;;;;;36.85;23.22;;;;;;;1.75;76.92;101560.43;3591222;77;21437;-90
2022/10/13 05:03:05;;;;;;;43.90;22.35;;;;;;;1.72;76.98;101565.37;3548954;77;20899;-92
2022/10/13 05:07:56;;;;;;;38.20;24.72;;;;;;;1.68;76.80;101560.81;3607712;77;21464;-92
2022/10/13 05:12:47;;;;;;;45.45;25.65;;;;;;;1.66;77.00;101558.55;3556780;78;21205;-91
2022/10/13 05:17:38;;;;;;;36.85;25.50;;;;;;;1.69;77.02;101557.07;3628193;77;20877;-92
2022/10/13 05:22:31;;;;;;;36.55;24.05;;;;;;;1.68;77.05;101555.69;3618428;77;20970;-91
2022/10/13 05:27:22;;;;;;;35.35;23.38;;;;;;;1.69;76.91;101553.62;3592552;77;20993;-91
2022/10/13 05:32:13;;;;;;;38.95;26.60;;;;;;;1.69;76.94;101561.32;3600918;78;20942;-92
2022/10/13 05:37:04;;;;;;;39.92;26.37;;;;;;;1.71;77.03;101559.34;3570368;77;20973;-91
2022/10/13 05:41:57;;;;;;;39.95;24.52;;;;;;;1.72;77.09;101555.13;3550553;77;20966;-91
2022/10/13 05:46:48;;;;;;;44.73;24.30;;;;;;;1.79;77.27;101561.15;3552261;77;20990;-91
2022/10/13 05:51:44;;;;;;;41.80;23.52;;;;;;;1.83;77.33;101557.98;3606745;77;21488;-91
2022/10/13 05:57:00;;;;;;;36.55;23.85;;;;;;;1.88;77.40;101561.75;3583221;77;20927;-91
2022/10/13 06:01:53;;;;;;;30.10;18.93;;;;;;;1.95;77.64;101559.20;3637072;77;21190;-91
2022/10/13 06:06:47;;;;;;;41.85;24.25;;;;;;;1.99;77.68;101557.72;3580452;78;21032;-91
2022/10/13 06:11:38;;;;;;;43.78;25.02;;;;;;;2.07;77.89;101570.62;3575550;77;20968;-90
2022/10/13 06:16:29;;;;;;;35.15;22.35;;;;;;;2.17;78.01;101577.27;3608326;77;20915;-92
2022/10/13 06:21:21;;;;;;;35.85;22.77;;;;;;;2.25;78.11;101566.70;3577969;77;22420;-91
2022/10/13 06:26:12;;;;;;;36.53;22.85;;;;;;;2.33;78.07;101573.61;3515803;77;20955;-90
2022/10/13 06:31:05;;;;;;;32.30;22.82;;;;;;;2.40;78.08;101571.05;3548592;77;21006;-91
2022/10/13 06:36:05;;;;;;;46.02;25.72;;;;;;;2.55;78.23;101564.70;3565210;77;20942;-90
2022/10/13 06:41:02;;;;;;;35.65;22.52;;;;;;;2.75;78.15;101565.94;3549175;78;21092;-91
2022/10/13 06:45:59;;;;;;;28.10;21.40;;;;;;;3.18;78.12;101571.12;3539442;77;20990;-91
2022/10/13 06:50:52;;;;;;;39.90;23.90;;;;;;;3.88;77.22;101570.95;3579282;77;20990;-91
2022/10/13 06:55:43;;;;;;;32.17;20.88;;;;;;;3.81;77.38;101565.47;3570719;77;20941;-91
2022/10/13 07:00:34;;;;;;;37.35;21.70;;;;;;;3.76;77.68;101573.31;3548139;78;20966;-91
2022/10/13 07:05:25;;;;;;;35.83;22.02;;;;;;;3.77;77.92;101576.39;3552523;77;20938;-91
2022/10/13 07:10:17;;;;;;;29.95;21.25;;;;;;;3.80;78.35;101570.52;3557107;77;20923;-91
2022/10/13 07:15:10;;;;;;;28.80;20.97;;;;;;;3.88;78.75;101565.80;3611850;77;21056;-90
2022/10/13 07:20:03;;;;;;;32.88;20.77;;;;;;;3.96;78.97;101560.71;3555605;77;21471;-91
2022/10/13 07:24:54;;;;;;;31.80;21.65;;;;;;;4.14;80.01;101556.60;3530365;78;20916;-91
2022/10/13 07:29:45;;;;;;;30.00;20.43;;;;;;;4.34;80.10;101554.26;3595921;77;21311;-91
2022/10/13 07:34:37;;;;;;;30.90;21.95;;;;;;;4.53;80.38;101544.17;3598269;77;21822;-92
2022/10/13 07:39:28;;;;;;;29.60;20.82;;;;;;;5.18;80.60;101542.45;3540335;77;21256;-91
2022/10/13 07:44:19;;;;;;;25.65;18.27;;;;;;;6.61;78.30;101536.56;3574401;77;20966;-91
2022/10/13 07:49:10;;;;;;;31.55;21.17;;;;;;;6.92;78.28;101530.61;3516784;78;20961;-91
2022/10/13 07:54:02;;;;;;;29.25;17.85;;;;;;;7.01;78.79;101523.27;3557216;77;21453;-92
2022/10/13 07:58:53;;;;;;;30.50;19.87;;;;;;;7.03;79.14;101522.53;3539408;77;20925;-90
2022/10/13 08:03:45;;;;;;;27.40;19.75;;;;;;;9.23;76.62;101500.97;3583574;78;20970;-90
2022/10/13 08:08:39;;;;;;;26.85;18.07;;;;;;;9.23;76.62;101500.97;3508167;77;20972;-91
2022/10/13 08:13:32;;;;;;;27.60;15.98;;;;;;;9.47;76.93;101496.62;3630935;77;21017;-89
2022/10/13 08:18:25;;;;;;;21.55;15.80;;;;;;;9.22;77.15;101491.44;3607822;77;20946;-88
2022/10/13 08:23:16;;;;;;;19.75;13.83;;;;;;;9.22;77.15;101491.44;3581525;77;21548;-90
2022/10/13 08:28:27;;;;;;;23.67;13.38;;;;;;;9.16;77.37;101489.52;3593923;77;21554;-91
2022/10/13 08:33:19;;;;;;;20.00;12.15;;;;;;;9.20;76.95;101484.89;3578155;78;20999;-92
2022/10/13 08:38:10;;;;;;;21.93;13.45;;;;;;;9.51;76.27;101471.27;3516301;78;20948;-86
2022/10/13 08:43:08;;;;;;;21.90;12.88;;;;;;;9.72;76.11;101474.08;3549375;78;20999;-85
2022/10/13 08:48:12;;;;;;;18.40;10.78;;;;;;;9.98;75.99;101469.73;3587748;78;20961;-85
2022/10/13 08:53:26;;;;;;;15.40;10.53;;;;;;;10.03;75.68;101468.55;3584130;77;21155;-87
2022/10/13 08:58:30;;;;;;;15.88;10.13;;;;;;;10.27;76.13;101468.02;3622097;77;20990;-93
2022/10/13 09:03:25;;;;;;;14.78;9.73;;;;;;;10.46;75.14;101460.79;3641229;77;20956;-92
2022/10/13 09:08:20;;;;;;;12.95;6.90;;;;;;;10.59;74.36;101465.52;3594525;77;20987;-95
2022/10/13 09:13:11;;;;;;;12.95;6.30;;;;;;;10.82;73.54;101460.98;3550790;78;21612;-93
2022/10/13 09:18:12;;;;;;;11.93;6.00;;;;;;;12.13;70.33;101456.46;3534963;78;21200;-94
2022/10/13 09:23:19;;;;;;;14.18;6.67;;;;;;;13.28;68.31;101450.03;3603979;78;21012;-90
2022/10/13 09:28:29;;;;;;;9.18;5.65;;;;;;;14.26;67.17;101448.54;3553258;77;21564;-91
2022/10/13 09:33:23;;;;;;;7.87;5.12;;;;;;;14.19;66.79;101445.39;3590239;77;20998;-94
2022/10/13 09:38:18;;;;;;;11.08;5.05;;;;;;;13.87;66.29;101433.60;3576344;77;22331;-93
2022/10/13 09:43:30;;;;;;;11.35;6.05;;;;;;;14.56;64.74;101439.30;3553430;77;21437;-89
2022/10/13 09:48:27;;;;;;;11.90;6.10;;;;;;;14.13;65.08;101432.22;3572446;77;21019;-96
2022/10/13 09:53:36;;;;;;;6.40;4.37;;;;;;;15.33;63.59;101423.14;3576764;78;21124;-89
2022/10/13 09:58:31;;;;;;;8.13;4.80;;;;;;;16.56;61.40;101418.64;3598229;77;20957;-89
2022/10/13 10:03:29;;;;;;;8.20;5.10;;;;;;;15.79;61.51;101418.26;3566638;77;20947;-89
2022/10/13 10:08:29;;;;;;;8.75;5.65;;;;;;;16.43;60.22;101398.48;3595926;77;21312;-90
2022/10/13 10:13:21;;;;;;;6.30;4.00;;;;;;;16.57;59.80;101396.79;3625118;77;20983;-91
2022/10/13 10:18:21;;;;;;;6.17;3.72;;;;;;;16.42;59.64;101394.09;3595430;77;20967;-89
2022/10/13 10:23:36;;;;;;;4.17;2.98;;;;;;;16.15;58.81;101382.62;3598936;78;21952;-88
2022/10/13 10:29:03;;;;;;;4.28;2.58;;;;;;;15.43;58.81;101379.09;3615791;77;21029;-86
2022/10/13 10:34:27;;;;;;;6.83;2.85;;;;;;;14.98;58.32;101375.23;3612464;78;21328;-87
2022/10/13 10:39:41;;;;;;;6.62;3.25;;;;;;;14.79;58.86;101367.21;3603723;77;21494;-89
2022/10/13 10:44:42;;;;;;;6.72;2.92;;;;;;;14.75;58.43;101364.09;3589676;78;20939;-83
2022/10/13 10:49:39;;;;;;;7.85;3.27;;;;;;;14.72;57.85;101352.72;3565041;77;21609;-90
2022/10/13 10:54:59;;;;;;;7.33;3.30;;;;;;;14.54;58.69;101347.73;3531801;77;20916;-92
2022/10/13 11:00:14;;;;;;;5.22;3.15;;;;;;;14.66;57.63;101337.39;3487654;80;21578;-92
2022/10/13 11:05:05;;;;;;;10.78;4.87;;;;;;;14.73;58.38;101331.80;3437303;82;21022;-91
2022/10/13 11:10:01;;;;;;;6.28;3.60;;;;;;;15.25;57.75;101328.75;3421334;81;21105;-91
2022/10/13 11:15:12;;;;;;;7.35;3.27;;;;;;;15.95;56.48;101334.91;3497581;80;21005;-90
2022/10/13 11:20:24;;;;;;;7.28;2.98;;;;;;;15.91;56.42;101320.00;3418779;81;21048;-93
2022/10/13 11:25:44;;;;;;;5.30;3.08;;;;;;;16.14;55.54;101317.92;3447328;81;21164;-93
2022/10/13 11:30:46;;;;;;;5.35;3.05;;;;;;;18.39;52.17;101293.61;3483475;80;21459;-94
2022/10/13 11:35:37;;;;;;;6.17;3.30;;;;;;;19.80;45.88;101290.19;3569933;78;20958;-91
2022/10/13 11:40:41;;;;;;;5.95;3.12;;;;;;;20.81;50.34;101280.41;3556414;78;20983;-95
2022/10/13 11:45:54;;;;;;;6.53;3.17;;;;;;;21.19;50.27;101285.48;3602041;77;21259;-87
2022/10/13 11:51:22;;;;;;;5.50;2.87;;;;;;;20.38;49.70;101270.03;3564417;78;21603;-95
2022/10/13 11:56:33;;;;;;;5.17;2.83;;;;;;;19.58;50.08;101268.87;3573519;78;20967;-95
2022/10/13 12:01:25;;;;;;;6.45;3.50;;;;;;;18.88;51.00;101262.11;3558064;78;21021;-94
2022/10/13 12:06:33;;;;;;;7.58;4.17;;;;;;;18.18;50.99;101256.44;3610199;78;21023;-87
2022/10/13 12:11:28;;;;;;;8.73;3.55;;;;;;;17.71;51.25;101250.95;3560229;78;20993;-88
2022/10/13 12:16:20;;;;;;;5.70;3.77;;;;;;;17.49;50.25;101246.19;3598890;78;21349;-89
2022/10/13 12:21:19;;;;;;;6.50;2.67;;;;;;;17.19;51.31;101248.45;3543739;77;21001;-91
2022/10/13 12:26:27;;;;;;;6.10;2.98;;;;;;;17.09;52.25;101247.61;3596039;77;20997;-91
2022/10/13 12:31:23;;;;;;;7.80;3.67;;;;;;;17.13;52.15;101242.36;3590105;78;20966;-91
2022/10/13 12:36:18;;;;;;;5.22;3.00;;;;;;;17.16;51.93;101232.27;3578380;78;20892;-92
2022/10/13 12:41:10;;;;;;;7.03;3.58;;;;;;;17.26;51.94;101228.75;3575582;78;21026;-92
2022/10/13 12:46:02;;;;;;;6.70;3.95;;;;;;;17.48;52.06;101222.98;3564321;78;21000;-96
2022/10/13 12:50:53;;;;;;;9.80;3.90;;;;;;;17.40;51.53;101218.20;3535250;78;21030;-94
2022/10/13 12:55:57;;;;;;;5.50;3.25;;;;;;;17.26;50.94;101212.09;3560088;77;21077;-93
2022/10/13 13:01:14;;;;;;;5.92;3.20;;;;;;;17.19;51.66;101205.10;3594477;77;21125;-93
2022/10/13 13:06:23;;;;;;;7.65;4.37;;;;;;;17.12;51.44;101209.07;3612231;77;21158;-90
2022/10/13 13:11:23;;;;;;;9.15;3.62;;;;;;;17.11;51.46;101202.50;3629768;78;20966;-91
2022/10/13 13:16:22;;;;;;;8.75;3.67;;;;;;;17.09;51.74;101205.12;3546529;78;20990;-92
2022/10/13 13:21:18;;;;;;;;;;;;;;;17.03;51.54;101202.53;3564074;77;21480;-90
2022/10/13 13:26:15;;;;;;;7.75;4.85;;;;;;;16.88;51.60;101194.66;3579313;78;20137;-92
2022/10/13 13:31:10;;;;;;;8.60;4.47;;;;;;;16.69;52.09;101193.34;3535874;77;21476;-90
2022/10/13 13:36:02;;;;;;;8.28;4.37;;;;;;;16.52;51.45;101188.53;3597242;78;20916;-91
2022/10/13 13:40:53;;;;;;;8.40;4.25;;;;;;;16.51;52.53;101186.80;3592957;78;21425;-91
2022/10/13 13:45:44;;;;;;;7.55;4.87;;;;;;;16.41;52.73;101187.66;3564828;77;21128;-91
2022/10/13 13:50:36;;;;;;;9.58;4.95;;;;;;;16.28;52.14;101180.23;3570357;77;20957;-91
2022/10/13 13:55:28;;;;;;;14.75;6.58;;;;;;;16.17;52.96;101181.53;3571089;77;21156;-93
2022/10/13 14:00:21;;;;;;;8.68;5.22;;;;;;;16.04;52.91;101184.98;3606364;77;21021;-87
2022/10/13 14:05:15;;;;;;;12.28;4.80;;;;;;;15.91;53.26;101184.09;3547023;77;20877;-90
2022/10/13 14:10:09;;;;;;;10.25;6.12;;;;;;;15.79;53.56;101180.98;3515585;77;20982;-90
2022/10/13 14:15:00;;;;;;;11.73;5.85;;;;;;;15.59;53.35;101182.20;3608276;77;21470;-89
2022/10/13 14:19:52;;;;;;;11.78;5.78;;;;;;;15.42;54.14;101171.67;3555694;77;22016;-96
2022/10/13 14:24:43;;;;;;;7.28;4.62;;;;;;;15.32;54.52;101167.25;3574060;77;20982;-96
2022/10/13 14:29:35;;;;;;;8.98;4.25;;;;;;;15.08;55.10;101163.64;3581011;78;20915;-93
2022/10/13 14:34:27;;;;;;;7.72;3.98;;;;;;;14.83;55.86;101160.88;3535977;77;20974;-89
2022/10/13 14:39:18;;;;;;;13.70;4.72;;;;;;;14.55;56.37;101164.12;3529680;78;20975;-90
2022/10/13 14:44:12;;;;;;;12.45;4.97;;;;;;;14.25;57.36;101164.30;3624813;77;21174;-93
2022/10/13 14:49:03;;;;;;;9.25;4.55;;;;;;;13.96;58.63;101163.59;3587983;77;21022;-89
2022/10/13 14:53:54;;;;;;;13.23;5.03;;;;;;;13.63;59.24;101167.61;3573193;78;21151;-90
2022/10/13 14:58:47;;;;;;;9.10;4.70;;;;;;;13.33;59.85;101171.59;3566019;77;21237;-91
2022/10/13 15:03:38;;;;;;;7.55;3.92;;;;;;;13.08;60.72;101166.88;3522522;77;21517;-87
2022/10/13 15:08:30;;;;;;;9.60;4.45;;;;;;;12.76;60.94;101159.45;3583151;77;22005;-89
2022/10/13 15:13:21;;;;;;;9.03;3.52;;;;;;;12.50;61.44;101159.94;3579483;77;21461;-91
2022/10/13 15:18:12;;;;;;;7.97;4.55;;;;;;;12.26;62.08;101158.21;3538025;77;20986;-93
2022/10/13 15:23:04;;;;;;;13.90;5.37;;;;;;;12.00;62.30;101159.52;3502911;78;21013;-92
2022/10/13 15:27:55;;;;;;;6.97;4.30;;;;;;;11.77;62.71;101149.93;3540388;77;20998;-92
2022/10/13 15:32:49;;;;;;;13.10;4.80;;;;;;;11.54;63.09;101149.91;3506623;79;21211;-91
2022/10/13 15:37:41;;;;;;;6.12;3.67;;;;;;;11.32;63.45;101142.07;3532609;79;20997;-90
2022/10/13 15:42:32;;;;;;;11.50;4.00;;;;;;;11.12;64.14;101151.63;3520198;79;21026;-88
2022/10/13 15:47:23;;;;;;;15.10;5.95;;;;;;;10.90;64.35;101149.42;3511736;77;20942;-94
2022/10/13 15:52:14;;;;;;;8.85;3.87;;;;;;;10.67;64.86;101146.73;3501012;79;21049;-89
2022/10/13 15:57:05;;;;;;;9.48;4.12;;;;;;;10.52;65.28;101135.98;3506621;79;21008;-89
2022/10/13 16:01:57;;;;;;;10.07;4.07;;;;;;;10.28;65.42;101131.92;3526061;78;20958;-89
2022/10/13 16:06:48;;;;;;;8.70;4.10;;;;;;;10.07;65.71;101133.98;3492967;79;21118;-89
2022/10/13 16:11:40;;;;;;;7.25;3.92;;;;;;;9.88;66.12;101130.88;3526322;77;20945;-89
2022/10/13 16:16:31;;;;;;;13.00;6.08;;;;;;;9.67;65.93;101134.20;3527886;77;20964;-88
2022/10/13 16:21:25;;;;;;;9.60;4.87;;;;;;;9.49;66.77;101130.68;3461340;77;40398;-89
2022/10/13 16:26:17;;;;;;;13.55;5.95;;;;;;;9.33;66.77;101144.51;3562701;77;22292;-89
2022/10/13 16:31:14;;;;;;;12.20;6.00;;;;;;;9.19;67.27;101143.66;3471149;77;20953;-89
2022/10/13 16:36:11;;;;;;;14.43;6.47;;;;;;;9.07;67.67;101143.77;3529509;77;21529;-88
2022/10/13 16:41:08;;;;;;;17.73;7.17;;;;;;;8.91;67.47;101148.03;3555503;77;21506;-88
2022/10/13 16:46:03;;;;;;;14.70;7.22;;;;;;;8.71;67.67;101147.00;3576040;78;20935;-89
2022/10/13 16:50:54;;;;;;;17.25;9.43;;;;;;;8.62;68.33;101147.10;3614648;78;22248;-91
2022/10/13 16:55:46;;;;;;;14.87;9.88;;;;;;;8.50;68.33;101150.20;3510632;77;20921;-91
2022/10/13 17:00:39;;;;;;;21.33;9.80;;;;;;;8.37;68.69;101146.27;3496252;78;20954;-91
2022/10/13 17:05:32;;;;;;;16.75;10.40;;;;;;;8.24;69.13;101138.52;3540528;77;20962;-92
2022/10/13 17:10:23;;;;;;;13.32;8.53;;;;;;;7.99;69.05;101129.95;3579223;77;21176;-91
2022/10/13 17:15:19;;;;;;;16.77;9.00;;;;;;;7.99;69.05;101129.95;3552482;78;21002;-92
2022/10/13 17:20:12;;;;;;;19.65;9.85;;;;;;;7.94;69.31;101137.06;3518363;78;20919;-92
2022/10/13 17:25:06;;;;;;;13.78;7.47;;;;;;;7.82;69.70;101132.36;3581619;78;20935;-92
2022/10/13 17:29:57;;;;;;;13.75;7.40;;;;;;;7.72;69.80;101125.09;3550246;77;22221;-91
2022/10/13 17:34:48;;;;;;;9.00;6.58;;;;;;;7.62;70.00;101122.19;3543827;77;21697;-92
2022/10/13 17:39:39;;;;;;;10.13;6.80;;;;;;;7.53;70.12;101116.69;3549248;77;20931;-92
2022/10/13 17:44:31;;;;;;;13.85;7.53;;;;;;;7.42;69.90;101118.89;3568155;77;21469;-91
2022/10/13 17:49:22;;;;;;;14.83;7.67;;;;;;;7.29;70.38;101120.97;3579403;77;20959;-92
